Time;durP1;ratioP1;P1;durP2;ratioP2;P2;SDS_P1;SDS_P2;PMS_P1;PMS_P2;Temp;Humidity;BMP_temperature;BMP_pressure;BME280_temperature;BME280_humidity;BME280_pressure;Samples;Min_cycle;Max_cycle;Signal;HPM_P1;HPM_P2
2023/10/30 00:00:47;;;;;;;;;1.50;1.50;;;;;;;;5103482;27;45341;-78
2023/10/30 00:03:14;;;;;;;;;2.75;2.00;;;;;;;;5103543;27;45308;-78
2023/10/30 00:05:39;;;;;;;;;2.25;2.25;;;;;;;;5102742;27;45519;-78
2023/10/30 00:08:06;;;;;;;;;1.75;1.75;;;;;;;;5103322;27;46459;-78
2023/10/30 00:10:31;;;;;;;;;2.00;1.00;;;;;;;;5103078;27;45275;-77
2023/10/30 00:12:56;;;;;;;;;2.00;2.00;;;;;;;;5103309;27;45222;-77
2023/10/30 00:15:23;;;;;;;;;1.00;1.00;;;;;;;;5102563;27;45260;-77
2023/10/30 00:17:48;;;;;;;;;1.00;1.00;;;;;;;;5102668;27;45308;-77
2023/10/30 00:20:13;;;;;;;;;0.50;0.50;;;;;;;;5101943;27;45462;-78
2023/10/30 00:22:38;;;;;;;;;1.00;1.00;;;;;;;;5103014;27;45293;-78
2023/10/30 00:25:03;;;;;;;;;2.50;1.00;;;;;;;;5102700;27;45255;-78
2023/10/30 00:27:29;;;;;;;;;3.50;2.00;;;;;;;;5102946;27;46352;-77
2023/10/30 00:29:54;;;;;;;;;0.50;0.50;;;;;;;;5089059;27;45298;-78
2023/10/30 00:32:19;;;;;;;;;0.00;0.00;;;;;;;;5082506;28;45265;-78
2023/10/30 00:34:44;;;;;;;;;3.00;1.00;;;;;;;;5082392;28;45291;-78
2023/10/30 00:37:11;;;;;;;;;0.00;0.00;;;;;;;;5082352;28;45321;-77
2023/10/30 00:39:37;;;;;;;;;1.75;0.00;;;;;;;;5081992;28;45366;-77
2023/10/30 00:42:02;;;;;;;;;1.00;1.00;;;;;;;;5082092;28;45362;-78
2023/10/30 00:44:27;;;;;;;;;2.00;2.00;;;;;;;;5082188;28;45479;-78
2023/10/30 00:46:53;;;;;;;;;1.00;1.00;;;;;;;;5081914;28;45364;-78
2023/10/30 00:49:19;;;;;;;;;2.00;2.00;;;;;;;;5082074;28;45252;-78
2023/10/30 00:51:44;;;;;;;;;1.75;1.25;;;;;;;;5082135;28;45326;-78
2023/10/30 00:54:09;;;;;;;;;1.50;0.50;;;;;;;;5081654;28;45258;-77
2023/10/30 00:56:34;;;;;;;;;1.00;1.00;;;;;;;;5081883;28;45381;-77
2023/10/30 00:59:00;;;;;;;;;3.50;1.00;;;;;;;;5081957;28;45383;-78
2023/10/30 01:01:25;;;;;;;;;1.75;0.50;;;;;;;;5081907;28;45762;-78
2023/10/30 01:03:50;;;;;;;;;1.75;1.00;;;;;;;;5080916;28;45156;-78
2023/10/30 01:06:16;;;;;;;;;0.75;0.75;;;;;;;;5081585;28;45275;-78
2023/10/30 01:08:41;;;;;;;;;3.33;1.67;;;;;;;;5081536;28;45209;-77
2023/10/30 01:11:06;;;;;;;;;3.33;2.33;;;;;;;;5081963;28;45375;-78
2023/10/30 01:13:32;;;;;;;;;1.67;0.33;;;;;;;;5080469;28;47064;-78
2023/10/30 01:15:58;;;;;;;;;2.33;1.67;;;;;;;;5081589;28;46222;-78
2023/10/30 01:18:23;;;;;;;;;2.25;0.75;;;;;;;;5081484;28;45259;-78
2023/10/30 01:20:48;;;;;;;;;0.75;0.00;;;;;;;;5081666;28;45282;-78
2023/10/30 01:23:16;;;;;;;;;0.67;0.67;;;;;;;;5081574;28;45576;-78
2023/10/30 01:25:42;;;;;;;;;2.25;1.75;;;;;;;;5080938;28;46889;-78
2023/10/30 01:28:07;;;;;;;;;1.00;1.00;;;;;;;;5081450;28;45288;-78
2023/10/30 01:30:33;;;;;;;;;0.50;0.00;;;;;;;;5100363;27;45302;-78
2023/10/30 01:32:58;;;;;;;;;3.67;1.67;;;;;;;;5101732;27;45620;-78
2023/10/30 01:35:23;;;;;;;;;1.50;1.00;;;;;;;;5101349;27;45350;-78
2023/10/30 01:37:48;;;;;;;;;1.00;0.50;;;;;;;;5101787;27;45262;-78
2023/10/30 01:40:14;;;;;;;;;1.00;1.00;;;;;;;;5101851;27;45293;-78
2023/10/30 01:42:39;;;;;;;;;1.75;1.50;;;;;;;;5101538;27;45451;-78
2023/10/30 01:45:05;;;;;;;;;1.00;1.00;;;;;;;;5101567;27;45297;-78
2023/10/30 01:47:30;;;;;;;;;2.00;1.33;;;;;;;;5101342;27;45495;-78
2023/10/30 01:49:56;;;;;;;;;1.50;1.50;;;;;;;;5101731;27;45177;-78
2023/10/30 01:52:22;;;;;;;;;1.50;1.50;;;;;;;;5101140;27;45161;-78
2023/10/30 01:54:48;;;;;;;;;1.33;1.00;;;;;;;;5101192;27;45355;-78
2023/10/30 01:57:15;;;;;;;;;1.25;0.25;;;;;;;;5101469;27;45251;-78
2023/10/30 01:59:41;;;;;;;;;0.00;0.00;;;;;;;;5101632;27;45247;-78
2023/10/30 02:02:06;;;;;;;;;3.33;2.00;;;;;;;;5101196;27;45414;-78
2023/10/30 02:04:32;;;;;;;;;1.25;1.25;;;;;;;;5099693;27;46458;-77
2023/10/30 02:06:57;;;;;;;;;1.00;1.00;;;;;;;;5101013;27;45331;-77
2023/10/30 02:09:23;;;;;;;;;4.75;1.00;;;;;;;;5101235;27;45303;-78
2023/10/30 02:11:48;;;;;;;;;0.00;0.00;;;;;;;;5101269;27;45525;-78
2023/10/30 02:14:13;;;;;;;;;1.25;0.50;;;;;;;;5100954;27;45344;-78
2023/10/30 02:16:39;;;;;;;;;0.25;0.25;;;;;;;;5101253;27;45112;-78
2023/10/30 02:19:06;;;;;;;;;2.00;0.50;;;;;;;;5101278;27;45573;-78
2023/10/30 02:21:31;;;;;;;;;1.00;1.00;;;;;;;;5100515;27;45304;-77
2023/10/30 02:24:01;;;;;;;;;2.25;2.00;;;;;;;;5100585;27;46032;-78
2023/10/30 02:26:26;;;;;;;;;2.25;2.25;;;;;;;;5100827;27;45424;-78
2023/10/30 02:28:51;;;;;;;;;1.25;0.25;;;;;;;;5096319;27;45324;-78
2023/10/30 02:31:16;;;;;;;;;1.25;1.25;;;;;;;;5079114;28;46098;-78
2023/10/30 02:33:41;;;;;;;;;2.25;0.50;;;;;;;;5080454;28;46684;-78
2023/10/30 02:36:06;;;;;;;;;1.50;0.50;;;;;;;;5080371;28;45320;-78
2023/10/30 02:38:32;;;;;;;;;2.50;0.50;;;;;;;;5080260;28;45441;-78
2023/10/30 02:40:58;;;;;;;;;1.00;1.00;;;;;;;;5080360;28;45672;-78
2023/10/30 02:43:23;;;;;;;;;0.00;0.00;;;;;;;;5078817;28;46389;-78
2023/10/30 02:45:49;;;;;;;;;0.25;0.25;;;;;;;;5080123;28;45374;-78
2023/10/30 02:48:14;;;;;;;;;2.00;2.00;;;;;;;;5079950;28;45494;-78
2023/10/30 02:50:39;;;;;;;;;0.25;0.25;;;;;;;;5080181;28;45742;-78
2023/10/30 02:53:04;;;;;;;;;1.25;1.25;;;;;;;;5080120;28;45325;-78
2023/10/30 02:55:31;;;;;;;;;1.33;1.33;;;;;;;;5079746;28;45350;-78
2023/10/30 02:57:56;;;;;;;;;2.75;2.75;;;;;;;;5080136;28;45478;-78
2023/10/30 03:00:21;;;;;;;;;1.00;1.00;;;;;;;;5080031;28;45513;-77
2023/10/30 03:02:46;;;;;;;;;2.50;1.00;;;;;;;;5079814;28;45237;-78
2023/10/30 03:05:11;;;;;;;;;2.00;2.00;;;;;;;;5079896;28;45274;-77
2023/10/30 03:07:37;;;;;;;;;1.00;1.00;;;;;;;;5080041;28;45493;-78
2023/10/30 03:10:02;;;;;;;;;1.50;1.50;;;;;;;;5079838;28;45215;-78
2023/10/30 03:12:27;;;;;;;;;1.00;0.75;;;;;;;;5079819;28;45691;-78
2023/10/30 03:14:53;;;;;;;;;2.75;2.00;;;;;;;;5079619;28;45354;-78
2023/10/30 03:17:18;;;;;;;;;2.00;2.00;;;;;;;;5080000;27;45808;-78
2023/10/30 03:19:43;;;;;;;;;2.00;1.25;;;;;;;;5079927;27;45321;-78
2023/10/30 03:22:08;;;;;;;;;1.00;1.00;;;;;;;;5079452;27;45371;-78
2023/10/30 03:24:34;;;;;;;;;1.33;1.00;;;;;;;;5079622;27;45416;-78
2023/10/30 03:27:00;;;;;;;;;2.25;2.25;;;;;;;;5081566;27;45382;-77
2023/10/30 03:29:25;;;;;;;;;1.00;1.00;;;;;;;;5083327;27;45385;-78
2023/10/30 03:31:54;;;;;;;;;1.25;1.25;;;;;;;;5083355;28;45520;-78
2023/10/30 03:34:19;;;;;;;;;3.00;3.00;;;;;;;;5083255;28;45246;-78
2023/10/30 03:36:45;;;;;;;;;2.33;2.33;;;;;;;;5083271;28;45666;-79
2023/10/30 03:39:10;;;;;;;;;3.67;3.00;;;;;;;;5083443;28;45488;-78
2023/10/30 03:41:37;;;;;;;;;1.00;1.00;;;;;;;;5082905;28;45675;-78
2023/10/30 03:44:02;;;;;;;;;2.00;2.00;;;;;;;;5083412;28;45336;-78
2023/10/30 03:46:28;;;;;;;;;2.33;1.00;;;;;;;;5083040;28;45414;-78
2023/10/30 03:48:53;;;;;;;;;2.00;1.00;;;;;;;;5083493;28;45323;-78
2023/10/30 03:51:18;;;;;;;;;2.67;2.00;;;;;;;;5082694;28;46191;-77
2023/10/30 03:53:43;;;;;;;;;2.33;1.00;;;;;;;;5083190;28;45432;-77
2023/10/30 03:56:09;;;;;;;;;2.00;2.00;;;;;;;;5083395;28;45248;-78
2023/10/30 03:58:34;;;;;;;;;1.33;1.33;;;;;;;;5082813;28;45561;-78
2023/10/30 04:01:06;;;;;;;;;2.00;2.00;;;;;;;;5082900;28;45571;-78
2023/10/30 04:03:31;;;;;;;;;1.00;1.00;;;;;;;;5083346;28;45226;-78
2023/10/30 04:06:01;;;;;;;;;1.33;1.33;;;;;;;;5083579;28;45373;-78
2023/10/30 04:08:26;;;;;;;;;4.00;1.67;;;;;;;;5083117;28;45403;-77
2023/10/30 04:10:51;;;;;;;;;4.00;2.00;;;;;;;;5082909;28;45405;-78
2023/10/30 04:13:16;;;;;;;;;3.00;1.67;;;;;;;;5082872;28;45362;-78
2023/10/30 04:15:41;;;;;;;;;2.33;1.00;;;;;;;;5083398;28;45276;-77
2023/10/30 04:18:07;;;;;;;;;0.00;0.00;;;;;;;;5082955;28;45513;-78
2023/10/30 04:20:32;;;;;;;;;2.00;2.00;;;;;;;;5082587;28;45326;-77
2023/10/30 04:22:58;;;;;;;;;0.67;0.67;;;;;;;;5082429;28;45351;-78
2023/10/30 04:25:23;;;;;;;;;2.00;2.00;;;;;;;;5082853;28;45378;-77
2023/10/30 04:27:48;;;;;;;;;4.33;2.33;;;;;;;;5082829;28;45689;-77
2023/10/30 04:30:13;;;;;;;;;2.00;2.00;;;;;;;;5099014;27;45560;-78
2023/10/30 04:32:38;;;;;;;;;0.00;0.00;;;;;;;;5103027;27;45206;-78
2023/10/30 04:35:04;;;;;;;;;1.00;1.00;;;;;;;;5102914;27;45194;-78
2023/10/30 04:37:29;;;;;;;;;3.00;2.00;;;;;;;;5101991;27;45478;-78
2023/10/30 04:39:54;;;;;;;;;3.00;3.00;;;;;;;;5101971;27;45970;-78
2023/10/30 04:42:20;;;;;;;;;2.00;2.00;;;;;;;;5102727;27;45278;-78
2023/10/30 04:44:45;;;;;;;;;1.00;1.00;;;;;;;;5102236;27;45374;-78
2023/10/30 04:47:10;;;;;;;;;1.50;1.50;;;;;;;;5102747;27;45294;-77
2023/10/30 04:49:36;;;;;;;;;1.50;1.50;;;;;;;;5104691;27;45325;-78
2023/10/30 04:52:02;;;;;;;;;1.75;1.00;;;;;;;;5107530;27;45357;-78
2023/10/30 04:54:28;;;;;;;;;4.00;1.00;;;;;;;;5106176;27;45268;-78
2023/10/30 04:56:53;;;;;;;;;1.00;1.00;;;;;;;;5107640;27;45305;-78
2023/10/30 04:59:18;;;;;;;;;2.00;1.00;;;;;;;;5107882;27;45431;-78
2023/10/30 05:01:43;;;;;;;;;0.75;0.75;;;;;;;;5105309;27;45298;-77
2023/10/30 05:04:08;;;;;;;;;0.00;0.00;;;;;;;;5106421;27;45367;-78
2023/10/30 05:06:33;;;;;;;;;2.25;2.25;;;;;;;;5108220;27;45373;-78
2023/10/30 05:08:59;;;;;;;;;1.50;0.75;;;;;;;;5107616;27;46188;-78
2023/10/30 05:11:24;;;;;;;;;1.00;1.00;;;;;;;;5107070;27;45316;-78
2023/10/30 05:13:49;;;;;;;;;1.25;1.25;;;;;;;;5107246;27;45395;-78
2023/10/30 05:16:14;;;;;;;;;1.00;1.00;;;;;;;;5108157;27;45644;-78
2023/10/30 05:18:39;;;;;;;;;2.75;0.75;;;;;;;;5109608;27;45404;-78
2023/10/30 05:21:04;;;;;;;;;2.00;2.00;;;;;;;;5104282;27;45369;-78
2023/10/30 05:23:30;;;;;;;;;1.25;0.00;;;;;;;;5104266;27;45337;-78
2023/10/30 05:25:55;;;;;;;;;0.25;0.25;;;;;;;;5106025;27;45393;-78
2023/10/30 05:28:20;;;;;;;;;0.00;0.00;;;;;;;;5107147;27;45331;-78
2023/10/30 05:30:45;;;;;;;;;3.50;2.25;;;;;;;;5087523;28;45415;-78
2023/10/30 05:33:10;;;;;;;;;1.00;0.75;;;;;;;;5086824;28;45271;-78
2023/10/30 05:35:36;;;;;;;;;1.75;0.50;;;;;;;;5084271;28;45378;-78
2023/10/30 05:38:04;;;;;;;;;2.00;1.00;;;;;;;;5083506;28;45418;-78
2023/10/30 05:40:29;;;;;;;;;1.00;0.00;;;;;;;;5082343;28;45214;-78
2023/10/30 05:42:54;;;;;;;;;0.00;0.00;;;;;;;;5084547;28;45231;-78
2023/10/30 05:45:19;;;;;;;;;1.25;1.25;;;;;;;;5083490;28;45149;-78
2023/10/30 05:47:44;;;;;;;;;0.25;0.25;;;;;;;;5082998;28;45455;-78
2023/10/30 05:50:10;;;;;;;;;0.75;0.75;;;;;;;;5081650;28;45216;-78
2023/10/30 05:52:35;;;;;;;;;0.00;0.00;;;;;;;;5082084;28;45290;-78
2023/10/30 05:55:00;;;;;;;;;1.00;0.25;;;;;;;;5084515;28;45271;-78
2023/10/30 05:57:25;;;;;;;;;0.00;0.00;;;;;;;;5083738;28;45193;-78
2023/10/30 05:59:50;;;;;;;;;0.25;0.25;;;;;;;;5082683;28;45365;-79
2023/10/30 06:02:16;;;;;;;;;0.50;0.50;;;;;;;;5081437;28;45330;-78
2023/10/30 06:04:41;;;;;;;;;0.00;0.00;;;;;;;;5082651;28;45210;-78
2023/10/30 06:07:06;;;;;;;;;1.00;0.00;;;;;;;;5081779;28;45247;-79
2023/10/30 06:09:31;;;;;;;;;0.00;0.00;;;;;;;;5081832;28;45419;-80
2023/10/30 06:11:56;;;;;;;;;0.00;0.00;;;;;;;;5082778;28;45169;-79
2023/10/30 06:14:22;;;;;;;;;1.50;0.00;;;;;;;;5082464;28;45218;-78
2023/10/30 06:16:48;;;;;;;;;1.75;0.25;;;;;;;;5084026;28;45529;-80
2023/10/30 06:19:13;;;;;;;;;0.50;0.25;;;;;;;;5081437;28;45435;-78
2023/10/30 06:21:43;;;;;;;;;0.25;0.25;;;;;;;;5081168;28;45410;-80
2023/10/30 06:24:08;;;;;;;;;0.75;0.75;;;;;;;;5081274;28;45194;-79
2023/10/30 06:26:34;;;;;;;;;0.00;0.00;;;;;;;;5075830;28;45309;-78
2023/10/30 06:28:59;;;;;;;;;0.00;0.00;;;;;;;;5072046;27;45233;-80
2023/10/30 06:31:24;;;;;;;;;0.00;0.00;;;;;;;;5100269;27;45329;-78
2023/10/30 06:33:49;;;;;;;;;0.00;0.00;;;;;;;;5100341;27;45463;-77
2023/10/30 06:36:15;;;;;;;;;0.25;0.25;;;;;;;;5104591;27;45218;-76
2023/10/30 06:38:40;;;;;;;;;0.00;0.00;;;;;;;;5108926;27;45278;-77
2023/10/30 06:41:05;;;;;;;;;0.75;0.75;;;;;;;;5109048;27;45209;-77
2023/10/30 06:43:34;;;;;;;;;0.00;0.00;;;;;;;;5107988;27;45495;-78
2023/10/30 06:46:03;;;;;;;;;0.50;0.50;;;;;;;;5100865;27;45361;-77
2023/10/30 06:48:28;;;;;;;;;1.75;1.75;;;;;;;;5099129;27;45297;-78
2023/10/30 06:50:54;;;;;;;;;0.75;0.75;;;;;;;;5100587;27;45354;-77
2023/10/30 06:53:19;;;;;;;;;1.00;0.25;;;;;;;;5081710;27;45413;-77
2023/10/30 06:55:44;;;;;;;;;1.00;1.00;;;;;;;;5069595;28;45358;-78
2023/10/30 06:58:10;;;;;;;;;0.00;0.00;;;;;;;;5065980;28;45738;-78
2023/10/30 07:00:35;;;;;;;;;2.00;1.75;;;;;;;;5066797;28;45290;-77
2023/10/30 07:03:01;;;;;;;;;1.00;1.00;;;;;;;;5079142;28;45482;-79
2023/10/30 07:05:26;;;;;;;;;0.00;0.00;;;;;;;;5079763;28;46240;-78
2023/10/30 07:07:51;;;;;;;;;1.00;1.00;;;;;;;;5080093;28;45206;-78
2023/10/30 07:10:17;;;;;;;;;3.25;2.00;;;;;;;;5079985;28;45348;-78
2023/10/30 07:12:43;;;;;;;;;2.00;2.00;;;;;;;;5079933;28;45441;-78
2023/10/30 07:15:08;;;;;;;;;3.00;2.00;;;;;;;;5079948;28;45426;-77
2023/10/30 07:17:33;;;;;;;;;3.00;3.00;;;;;;;;5077553;28;45456;-79
2023/10/30 07:19:59;;;;;;;;;1.00;1.00;;;;;;;;5069559;28;45602;-78
2023/10/30 07:22:25;;;;;;;;;4.25;4.25;;;;;;;;5068295;28;45433;-79
2023/10/30 07:24:50;;;;;;;;;4.00;4.00;;;;;;;;5069425;28;45496;-78
2023/10/30 07:27:15;;;;;;;;;4.00;2.75;;;;;;;;5069407;28;45561;-80
2023/10/30 07:29:40;;;;;;;;;4.00;4.00;;;;;;;;5069490;27;45520;-79
2023/10/30 07:32:06;;;;;;;;;3.50;3.00;;;;;;;;5071007;28;45438;-79
2023/10/30 07:34:31;;;;;;;;;2.00;2.00;;;;;;;;5070157;28;46097;-79
2023/10/30 07:36:57;;;;;;;;;1.33;1.33;;;;;;;;5068511;28;45484;-79
2023/10/30 07:39:22;;;;;;;;;2.00;2.00;;;;;;;;5069584;28;45314;-78
2023/10/30 07:41:47;;;;;;;;;3.00;3.00;;;;;;;;5067637;28;45187;-77
2023/10/30 07:44:13;;;;;;;;;1.00;1.00;;;;;;;;5079511;28;46340;-79
2023/10/30 07:46:38;;;;;;;;;4.00;3.00;;;;;;;;5075277;28;45457;-78
2023/10/30 07:49:04;;;;;;;;;1.00;0.00;;;;;;;;5078380;28;45406;-78
2023/10/30 07:51:29;;;;;;;;;1.00;1.00;;;;;;;;5078921;28;45480;-80
2023/10/30 07:53:54;;;;;;;;;1.00;1.00;;;;;;;;5079119;28;45272;-77
2023/10/30 07:56:19;;;;;;;;;0.00;0.00;;;;;;;;5079544;28;45268;-77
2023/10/30 07:58:44;;;;;;;;;21.67;21.67;;;;;;;;5079437;28;45286;-78
2023/10/30 08:01:11;;;;;;;;;4.67;3.33;;;;;;;;5070328;28;45303;-77
2023/10/30 08:03:36;;;;;;;;;3.00;3.00;;;;;;;;5058640;28;46346;-77
2023/10/30 08:06:01;;;;;;;;;1.00;1.00;;;;;;;;5058862;28;45228;-77
2023/10/30 08:08:28;;;;;;;;;2.33;2.00;;;;;;;;5055003;28;45720;-78
2023/10/30 08:10:53;;;;;;;;;0.00;0.00;;;;;;;;5065959;28;45394;-78
2023/10/30 08:13:19;;;;;;;;;1.00;1.00;;;;;;;;5077609;28;45547;-78
2023/10/30 08:15:44;;;;;;;;;1.33;1.33;;;;;;;;5073118;28;45354;-78
2023/10/30 08:18:09;;;;;;;;;1.00;1.00;;;;;;;;5078324;27;45409;-79
2023/10/30 08:20:34;;;;;;;;;2.00;2.00;;;;;;;;5076611;28;45601;-79
2023/10/30 08:22:59;;;;;;;;;0.00;0.00;;;;;;;;5085008;28;46147;-78
2023/10/30 08:25:25;;;;;;;;;1.00;1.00;;;;;;;;5085660;28;45403;-78
2023/10/30 08:27:51;;;;;;;;;2.00;2.00;;;;;;;;5072856;28;45271;-77
2023/10/30 08:30:16;;;;;;;;;2.67;2.67;;;;;;;;5084438;27;45366;-77
2023/10/30 08:32:42;;;;;;;;;1.00;1.00;;;;;;;;5081350;27;45323;-78
2023/10/30 08:35:07;;;;;;;;;2.67;2.67;;;;;;;;5082666;28;45401;-78
2023/10/30 08:37:32;;;;;;;;;1.75;1.75;;;;;;;;5086049;27;44788;-79
2023/10/30 08:39:57;;;;;;;;;2.00;2.00;;;;;;;;5087094;27;45336;-78
2023/10/30 08:42:22;;;;;;;;;1.00;1.00;;;;;;;;5086933;28;45421;-78
2023/10/30 08:44:47;;;;;;;;;1.67;1.67;;;;;;;;5085167;28;45290;-78
2023/10/30 08:47:14;;;;;;;;;1.00;1.00;;;;;;;;5084088;28;45748;-79
2023/10/30 08:49:39;;;;;;;;;1.33;1.33;;;;;;;;5074670;28;45558;-79
2023/10/30 08:52:04;;;;;;;;;1.00;1.00;;;;;;;;5070258;28;45527;-79
2023/10/30 08:54:30;;;;;;;;;1.00;0.67;;;;;;;;5072399;28;45236;-78
2023/10/30 08:56:55;;;;;;;;;3.75;3.00;;;;;;;;5075593;28;45554;-78
2023/10/30 08:59:20;;;;;;;;;0.00;0.00;;;;;;;;5076440;28;45559;-78
2023/10/30 09:01:45;;;;;;;;;2.50;2.00;;;;;;;;5076735;27;45398;-79
2023/10/30 09:04:10;;;;;;;;;1.00;1.00;;;;;;;;5075215;28;45343;-79
2023/10/30 09:06:35;;;;;;;;;6.00;5.00;;;;;;;;5081494;27;45267;-78
2023/10/30 09:09:01;;;;;;;;;4.33;4.33;;;;;;;;5073234;27;45512;-78
2023/10/30 09:11:26;;;;;;;;;5.67;5.67;;;;;;;;5082639;27;45609;-77
2023/10/30 09:13:52;;;;;;;;;5.33;5.33;;;;;;;;5084487;28;45278;-78
2023/10/30 09:16:17;;;;;;;;;6.67;6.00;;;;;;;;5070603;28;45373;-77
2023/10/30 09:18:42;;;;;;;;;8.00;8.00;;;;;;;;5070561;28;45422;-78
2023/10/30 09:21:08;;;;;;;;;7.67;6.33;;;;;;;;5072525;28;46347;-78
2023/10/30 09:23:33;;;;;;;;;8.67;8.67;;;;;;;;5071634;28;45398;-78
2023/10/30 09:25:58;;;;;;;;;9.00;9.00;;;;;;;;5075959;27;45692;-78
2023/10/30 09:28:23;;;;;;;;;8.00;8.00;;;;;;;;5073563;27;45378;-80
2023/10/30 09:30:49;;;;;;;;;7.00;7.00;;;;;;;;5073170;27;46448;-77
2023/10/30 09:33:15;;;;;;;;;8.33;8.33;;;;;;;;5072677;28;45349;-78
2023/10/30 09:35:42;;;;;;;;;6.00;6.00;;;;;;;;5072281;28;45509;-78
2023/10/30 09:38:07;;;;;;;;;8.67;8.00;;;;;;;;5070711;27;45746;-78
2023/10/30 09:40:32;;;;;;;;;7.00;6.33;;;;;;;;5069437;28;46208;-77
2023/10/30 09:42:59;;;;;;;;;7.00;7.00;;;;;;;;5074277;27;45247;-79
2023/10/30 09:45:25;;;;;;;;;5.33;5.33;;;;;;;;5074657;28;45300;-78
2023/10/30 09:47:51;;;;;;;;;3.00;3.00;;;;;;;;5080782;27;45411;-78
2023/10/30 09:50:17;;;;;;;;;5.00;5.00;;;;;;;;5072466;28;45551;-78
2023/10/30 09:52:43;;;;;;;;;6.33;6.33;;;;;;;;5093063;27;44696;-77
2023/10/30 09:55:11;;;;;;;;;10.67;10.67;;;;;;;;5086642;28;45377;-78
2023/10/30 09:57:36;;;;;;;;;11.00;10.33;;;;;;;;5081170;27;45629;-79
2023/10/30 10:00:05;;;;;;;;;9.00;7.33;;;;;;;;5084105;28;45421;-78
2023/10/30 10:02:30;;;;;;;;;10.00;10.00;;;;;;;;5069471;27;45333;-79
2023/10/30 10:04:56;;;;;;;;;6.67;6.67;;;;;;;;5087688;28;45211;-78
2023/10/30 10:07:21;;;;;;;;;7.00;7.00;;;;;;;;5085224;27;45757;-77
2023/10/30 10:09:56;;;;;;;;;3.00;3.00;;;;;;;;5083973;28;45550;-78
2023/10/30 10:12:21;;;;;;;;;10.00;8.67;;;;;;;;5067589;28;45152;-78
2023/10/30 10:14:47;;;;;;;;;6.67;6.00;;;;;;;;5071501;28;45203;-78
2023/10/30 10:17:12;;;;;;;;;2.25;2.25;;;;;;;;5070964;27;45627;-78
2023/10/30 10:19:44;;;;;;;;;1.00;1.00;;;;;;;;5065924;28;46353;-77
2023/10/30 10:22:10;;;;;;;;;3.00;2.00;;;;;;;;5069971;27;45311;-78
2023/10/30 10:24:36;;;;;;;;;1.25;1.25;;;;;;;;5068829;28;45239;-79
2023/10/30 10:27:02;;;;;;;;;1.00;1.00;;;;;;;;5071802;27;45221;-79
2023/10/30 10:29:28;;;;;;;;;0.00;0.00;;;;;;;;5076434;27;45581;-78
2023/10/30 10:31:53;;;;;;;;;1.00;1.00;;;;;;;;5074812;27;45335;-78
2023/10/30 10:34:19;;;;;;;;;2.00;1.00;;;;;;;;5070207;28;45402;-79
2023/10/30 10:36:44;;;;;;;;;0.50;0.50;;;;;;;;5071911;27;45575;-78
2023/10/30 10:39:09;;;;;;;;;0.25;0.25;;;;;;;;5066143;28;45484;-78
2023/10/30 10:41:37;;;;;;;;;2.00;1.00;;;;;;;;5072343;27;45335;-78
2023/10/30 10:44:02;;;;;;;;;2.25;1.00;;;;;;;;5068288;28;45409;-80
2023/10/30 10:46:28;;;;;;;;;2.25;1.50;;;;;;;;5071090;27;45222;-77
2023/10/30 10:48:53;;;;;;;;;2.00;1.00;;;;;;;;5077701;28;45280;-78
2023/10/30 10:51:24;;;;;;;;;0.00;0.00;;;;;;;;5075551;27;45379;-79
2023/10/30 10:53:51;;;;;;;;;0.00;0.00;;;;;;;;5061667;28;45367;-79
2023/10/30 10:56:17;;;;;;;;;0.00;0.00;;;;;;;;5066187;27;45521;-78
2023/10/30 10:58:46;;;;;;;;;1.00;1.00;;;;;;;;5072961;28;46117;-78
2023/10/30 11:01:16;;;;;;;;;0.00;0.00;;;;;;;;5096744;27;45273;-77
2023/10/30 11:03:43;;;;;;;;;0.00;0.00;;;;;;;;5079693;27;45456;-79
2023/10/30 11:06:09;;;;;;;;;0.50;0.00;;;;;;;;5061499;28;45464;-77
2023/10/30 11:08:53;;;;;;;;;1.00;1.00;;;;;;;;5079953;28;46552;-77
2023/10/30 11:11:23;;;;;;;;;0.50;0.50;;;;;;;;5080383;28;45278;-78
2023/10/30 11:14:02;;;;;;;;;1.50;1.50;;;;;;;;5080665;28;45405;-77
2023/10/30 11:16:29;;;;;;;;;0.75;0.75;;;;;;;;5080151;28;45325;-77
2023/10/30 11:18:58;;;;;;;;;0.00;0.00;;;;;;;;5082950;28;46025;-77
2023/10/30 11:21:27;;;;;;;;;1.00;1.00;;;;;;;;5076179;28;45236;-75
2023/10/30 11:23:54;;;;;;;;;1.50;1.00;;;;;;;;5075917;28;45414;-76
2023/10/30 11:26:38;;;;;;;;;0.25;0.25;;;;;;;;5079937;28;45468;-77
2023/10/30 11:29:22;;;;;;;;;2.75;1.25;;;;;;;;5086390;27;45436;-76
2023/10/30 11:31:54;;;;;;;;;1.00;1.00;;;;;;;;5091371;27;45236;-77
2023/10/30 11:34:22;;;;;;;;;2.00;2.00;;;;;;;;5084643;27;45381;-77
2023/10/30 11:36:50;;;;;;;;;2.00;2.00;;;;;;;;5077376;27;45282;-77
2023/10/30 11:39:20;;;;;;;;;4.75;2.75;;;;;;;;5080385;28;45416;-77
2023/10/30 11:41:49;;;;;;;;;2.00;2.00;;;;;;;;5082290;28;45331;-75
2023/10/30 11:44:15;;;;;;;;;2.25;1.00;;;;;;;;5074339;28;45351;-76
2023/10/30 11:46:41;;;;;;;;;1.00;1.00;;;;;;;;5070463;28;45266;-77
2023/10/30 11:49:18;;;;;;;;;1.00;1.00;;;;;;;;5073843;28;46085;-77
2023/10/30 11:51:49;;;;;;;;;1.00;1.00;;;;;;;;5073698;28;45283;-76
2023/10/30 11:54:34;;;;;;;;;0.50;0.50;;;;;;;;5083873;28;45134;-77
2023/10/30 11:57:00;;;;;;;;;0.00;0.00;;;;;;;;5069530;28;45841;-79
2023/10/30 11:59:30;;;;;;;;;1.00;1.00;;;;;;;;5086073;28;46095;-77
2023/10/30 12:01:58;;;;;;;;;0.25;0.25;;;;;;;;5082088;28;45322;-78
2023/10/30 12:04:24;;;;;;;;;0.00;0.00;;;;;;;;5075446;28;45349;-76
2023/10/30 12:06:49;;;;;;;;;1.25;1.00;;;;;;;;5078983;28;45196;-76
2023/10/30 12:09:17;;;;;;;;;0.00;0.00;;;;;;;;5085046;28;45217;-77
2023/10/30 12:11:42;;;;;;;;;0.00;0.00;;;;;;;;5085868;28;45360;-77
2023/10/30 12:14:08;;;;;;;;;1.00;0.00;;;;;;;;5086697;28;45678;-74
2023/10/30 12:16:36;;;;;;;;;1.50;1.50;;;;;;;;5083307;28;45453;-76
2023/10/30 12:19:02;;;;;;;;;0.75;0.75;;;;;;;;5074628;28;45383;-75
2023/10/30 12:21:27;;;;;;;;;0.00;0.00;;;;;;;;5078487;28;45273;-75
2023/10/30 12:23:55;;;;;;;;;0.00;0.00;;;;;;;;5082097;28;45567;-76
2023/10/30 12:26:21;;;;;;;;;0.25;0.25;;;;;;;;5087881;28;44992;-75
2023/10/30 12:28:46;;;;;;;;;0.00;0.00;;;;;;;;5082588;27;45359;-74
2023/10/30 12:31:22;;;;;;;;;0.00;0.00;;;;;;;;5082468;28;45353;-73
2023/10/30 12:33:47;;;;;;;;;0.00;0.00;;;;;;;;5078481;28;45211;-74
2023/10/30 12:36:13;;;;;;;;;0.25;0.25;;;;;;;;5064660;28;45206;-74
2023/10/30 12:38:38;;;;;;;;;1.75;0.00;;;;;;;;5064521;28;46234;-76
2023/10/30 12:41:06;;;;;;;;;0.50;0.50;;;;;;;;5069659;28;45361;-77
2023/10/30 12:43:41;;;;;;;;;2.00;1.25;;;;;;;;5071452;28;45363;-77
2023/10/30 12:46:06;;;;;;;;;2.00;1.00;;;;;;;;5070434;28;45252;-76
2023/10/30 12:48:33;;;;;;;;;0.00;0.00;;;;;;;;5072540;28;45322;-75
2023/10/30 12:50:58;;;;;;;;;1.25;1.25;;;;;;;;5070033;28;45341;-75
2023/10/30 12:53:23;;;;;;;;;0.25;0.25;;;;;;;;5071801;28;45287;-75
2023/10/30 12:55:49;;;;;;;;;1.25;1.00;;;;;;;;5074247;28;45627;-75
2023/10/30 12:58:14;;;;;;;;;0.25;0.25;;;;;;;;5081798;28;45944;-75
2023/10/30 13:00:39;;;;;;;;;2.75;1.00;;;;;;;;5080872;28;45212;-75
2023/10/30 13:03:05;;;;;;;;;1.25;0.75;;;;;;;;5081209;28;45464;-76
2023/10/30 13:05:30;;;;;;;;;0.00;0.00;;;;;;;;5080131;28;45367;-75
2023/10/30 13:07:55;;;;;;;;;1.75;0.00;;;;;;;;5081275;28;45231;-76
2023/10/30 13:10:20;;;;;;;;;1.00;1.00;;;;;;;;5081871;28;45474;-76
2023/10/30 13:12:46;;;;;;;;;1.25;1.00;;;;;;;;5079333;27;45533;-77
2023/10/30 13:15:11;;;;;;;;;0.00;0.00;;;;;;;;5081570;28;45229;-77
2023/10/30 13:17:36;;;;;;;;;0.75;0.00;;;;;;;;5087270;27;45323;-77
2023/10/30 13:20:05;;;;;;;;;0.00;0.00;;;;;;;;5084706;27;45615;-77
2023/10/30 13:22:30;;;;;;;;;0.00;0.00;;;;;;;;5081387;27;45420;-77
2023/10/30 13:24:56;;;;;;;;;0.00;0.00;;;;;;;;5081384;27;45369;-77
2023/10/30 13:27:21;;;;;;;;;0.50;0.50;;;;;;;;5081367;28;45347;-77
2023/10/30 13:29:46;;;;;;;;;2.25;1.50;;;;;;;;5093748;27;45341;-77
2023/10/30 13:32:12;;;;;;;;;1.00;1.00;;;;;;;;5088295;27;45322;-78
2023/10/30 13:34:37;;;;;;;;;1.00;1.00;;;;;;;;5080342;28;45646;-77
2023/10/30 13:37:03;;;;;;;;;0.00;0.00;;;;;;;;5070979;27;45404;-77
2023/10/30 13:39:28;;;;;;;;;0.00;0.00;;;;;;;;5070968;28;45407;-77
2023/10/30 13:41:54;;;;;;;;;0.00;0.00;;;;;;;;5066337;27;45531;-77
2023/10/30 13:44:19;;;;;;;;;0.00;0.00;;;;;;;;5060923;28;45298;-77
2023/10/30 13:46:44;;;;;;;;;0.00;0.00;;;;;;;;5076568;27;45439;-77
2023/10/30 13:49:10;;;;;;;;;1.50;1.50;;;;;;;;5081033;28;45632;-77
2023/10/30 13:51:35;;;;;;;;;1.00;1.00;;;;;;;;5081320;27;45411;-77
2023/10/30 13:54:00;;;;;;;;;2.00;1.50;;;;;;;;5075915;28;45525;-77
2023/10/30 13:56:25;;;;;;;;;1.00;0.75;;;;;;;;5070600;27;46291;-77
2023/10/30 13:58:51;;;;;;;;;3.00;3.00;;;;;;;;5065879;28;45476;-77
2023/10/30 14:01:17;;;;;;;;;0.50;0.50;;;;;;;;5073811;27;45588;-76
2023/10/30 14:03:42;;;;;;;;;2.25;2.25;;;;;;;;5068577;28;45234;-76
2023/10/30 14:06:07;;;;;;;;;3.25;1.75;;;;;;;;5069994;27;46451;-76
2023/10/30 14:08:33;;;;;;;;;2.50;2.00;;;;;;;;5069687;28;45461;-78
2023/10/30 14:10:58;;;;;;;;;3.00;2.75;;;;;;;;5072665;27;45640;-77
2023/10/30 14:13:23;;;;;;;;;4.00;4.00;;;;;;;;5078515;28;45571;-76
2023/10/30 14:15:48;;;;;;;;;3.75;3.75;;;;;;;;5074272;27;46324;-75
2023/10/30 14:18:13;;;;;;;;;11.67;9.33;;;;;;;;5081316;27;45366;-77
2023/10/30 14:20:38;;;;;;;;;6.33;6.33;;;;;;;;5072676;28;45240;-74
2023/10/30 14:23:04;;;;;;;;;9.00;9.00;;;;;;;;5076819;27;45450;-76
2023/10/30 14:25:29;;;;;;;;;7.00;6.00;;;;;;;;5070619;28;46336;-77
2023/10/30 14:27:54;;;;;;;;;7.00;7.00;;;;;;;;5064049;27;45517;-76
2023/10/30 14:30:19;;;;;;;;;11.00;9.33;;;;;;;;5080810;27;45513;-76
2023/10/30 14:32:44;;;;;;;;;8.33;6.67;;;;;;;;5068337;28;45381;-76
2023/10/30 14:35:10;;;;;;;;;6.25;6.00;;;;;;;;5079312;27;46036;-76